5R8

De Quincy Industrial Airpark

De Quincy, Louisiana, USA
METAR K5R8 221955Z AUTO 24006KT 220V280 10SM CLR 34/23 A2991 RMK AO2 T03400234
Observed Flight Rules
Jul-22 @ 19:55 UTC (16 minutes ago) Visual Flight Rules
Wind Visibility Clouds
240° at 6 knots 10 miles
  • Clear skies
Temperatures Readings
Current 34°C / 93°F
Dewpoint 23°C / 73°F
Humidity 53%
Altimeter 29.91" Hg
Pressure 1013 hPa
Elevation 24
METAR K5R8 221955Z AUTO 24006KT 220V280 10SM CLR 34/23 A2991 RMK AO2 T03400234
Observed Flight Rules
Jul-22 @ 19:55 UTC
(16 minutes ago)
VFR
Wind Visibility
240° at 6 knots 10 miles
Clouds
  • Clear skies
Temperature Dewpoint
34°C / 93°F 23°C / 73°F
Humidity Altimeter Pressure
53% 29.91" Hg 1013 hPa